Time;durP1;ratioP1;P1;durP2;ratioP2;P2;SDS_P1;SDS_P2;PMS_P1;PMS_P2;Temp;Humidity;BMP_temperature;BMP_pressure;BME280_temperature;BME280_humidity;BME280_pressure;Samples;Min_cycle;Max_cycle;Signal;HPM_P1;HPM_P2
2023/02/26 09:53:40;;;;;;;;;2.50;0.75;;;;;3.06;71.21;101837.09;5292091;23;50097;-72
2023/02/26 09:56:20;;;;;;;;;5.25;3.00;;;;;3.64;72.19;101932.75;4919989;28;49695;-69
2023/02/26 09:58:46;;;;;;;;;4.00;4.00;;;;;3.67;72.57;101932.09;4933777;28;49171;-69
2023/02/26 10:01:30;;;;;;;;;3.50;1.00;;;;;3.61;72.99;101939.47;4951032;28;49265;-70
2023/02/26 10:04:24;;;;;;;;;2.00;2.00;;;;;3.42;73.83;101912.25;4951228;28;49597;-71
2023/02/26 10:06:54;;;;;;;;;2.50;1.00;;;;;3.42;74.24;101913.94;4919771;28;49625;-74
2023/02/26 10:09:37;;;;;;;;;4.00;1.50;;;;;3.31;70.76;101931.41;4914841;28;49527;-70
2023/02/26 10:12:11;;;;;;;;;0.00;0.00;;;;;3.05;68.77;101915.72;4911226;28;50002;-69
2023/02/26 10:14:39;;;;;;;;;1.00;1.00;;;;;3.22;70.15;101946.31;4915184;28;51964;-68
2023/02/26 10:17:15;;;;;;;;;2.00;2.00;;;;;2.97;68.36;101916.88;4931680;28;49324;-69
2023/02/26 10:19:44;;;;;;;;;2.00;1.00;;;;;3.07;64.01;101940.06;4913412;28;49446;-73
2023/02/26 10:22:26;;;;;;;;;0.00;0.00;;;;;3.10;61.53;101968.84;4928733;28;49412;-69
2023/02/26 10:25:02;;;;;;;;;2.75;1.00;;;;;3.01;61.01;101953.53;4925092;28;49474;-69
2023/02/26 10:27:40;;;;;;;;;5.00;3.50;;;;;3.03;58.62;101970.09;4915373;28;49342;-69
2023/02/26 10:30:29;;;;;;;;;4.00;4.00;;;;;3.12;58.24;101965.56;4931644;28;49350;-68
2023/02/26 10:33:20;;;;;;;;;2.50;1.25;;;;;2.99;56.30;101951.59;4896582;28;50488;-72
2023/02/26 10:36:01;;;;;;;;;0.25;0.25;;;;;3.15;55.90;101962.25;4891984;28;52088;-70
2023/02/26 10:38:30;;;;;;;;;1.00;0.00;;;;;3.22;55.03;101950.63;4932059;28;49571;-69
2023/02/26 10:41:10;;;;;;;;;4.00;1.25;;;;;3.26;55.17;101963.91;4931971;28;49197;-69
2023/02/26 10:43:41;;;;;;;;;1.00;1.00;;;;;3.09;55.85;101934.22;4917957;28;49743;-69
2023/02/26 10:46:34;;;;;;;;;0.00;0.00;;;;;3.06;55.46;101928.78;4897587;28;50048;-69
2023/02/26 10:49:33;;;;;;;;;0.75;0.00;;;;;3.23;55.41;101949.81;4915009;28;49811;-69
2023/02/26 10:52:10;;;;;;;;;5.25;2.25;;;;;3.25;55.38;101935.25;4897440;28;49859;-70
2023/02/26 10:54:44;;;;;;;;;0.00;0.00;;;;;3.44;54.89;101969.47;4915648;28;49753;-69
2023/02/26 10:57:25;;;;;;;;;0.00;0.00;;;;;3.28;55.46;101933.78;4921832;28;50131;-68
2023/02/26 10:59:51;;;;;;;;;0.00;0.00;;;;;3.24;55.84;101942.13;4922945;28;50236;-69
2023/02/26 11:02:48;;;;;;;;;3.50;0.00;;;;;3.48;55.72;101989.66;4916416;28;49671;-70
2023/02/26 11:05:19;;;;;;;;;0.75;0.75;;;;;3.49;55.57;101985.38;4897998;28;50279;-69
2023/02/26 11:07:53;;;;;;;;;0.00;0.00;;;;;3.49;54.30;101987.97;4931695;28;50594;-70
2023/02/26 11:10:23;;;;;;;;;0.00;0.00;;;;;3.33;54.93;101960.03;4914445;28;49544;-69
2023/02/26 11:12:48;;;;;;;;;1.00;1.00;;;;;3.34;55.30;101961.84;4932092;28;49586;-71
2023/02/26 11:15:19;;;;;;;;;1.00;1.00;;;;;3.50;54.50;102007.94;4911558;28;49366;-71
2023/02/26 11:17:47;;;;;;;;;1.25;1.25;;;;;3.12;55.10;101915.34;4913981;28;49837;-71
2023/02/26 11:20:18;;;;;;;;;4.75;1.00;;;;;3.39;54.48;101974.34;4899312;28;49909;-69
2023/02/26 11:22:49;;;;;;;;;4.00;4.00;;;;;3.35;55.16;101958.44;4925509;28;49426;-68
2023/02/26 11:25:21;;;;;;;;;0.50;0.50;;;;;3.57;55.61;101978.97;4948152;28;49626;-69
2023/02/26 11:27:49;;;;;;;;;2.00;2.00;;;;;3.68;55.38;101986.72;4946236;28;50630;-69
2023/02/26 11:30:20;;;;;;;;;1.50;0.00;;;;;3.83;55.35;101972.97;4908016;28;49468;-69
2023/02/26 11:32:50;;;;;;;;;0.75;0.75;;;;;3.87;55.24;101969.78;4930624;28;49319;-68
2023/02/26 11:35:17;;;;;;;;;0.50;0.50;;;;;3.97;54.79;101986.09;4923826;28;49753;-68
2023/02/26 11:37:56;;;;;;;;;1.00;1.00;;;;;4.15;55.19;101962.09;4896501;28;52783;-69
2023/02/26 11:40:31;;;;;;;;;2.00;2.00;;;;;4.12;55.19;101964.50;4896753;28;49705;-69
2023/02/26 11:43:00;;;;;;;;;1.75;1.00;;;;;4.23;54.56;101980.00;4915347;28;50008;-70
2023/02/26 11:45:26;;;;;;;;;1.25;1.25;;;;;4.26;54.71;101935.13;4897638;28;49691;-69
2023/02/26 11:48:01;;;;;;;;;1.50;1.00;;;;;4.40;54.62;101954.19;4932652;28;49936;-68
2023/02/26 11:50:29;;;;;;;;;0.25;0.25;;;;;4.29;54.13;101941.41;4932133;28;49970;-70
2023/02/26 11:52:56;;;;;;;;;0.00;0.00;;;;;4.34;53.94;101946.88;4932285;28;49860;-71
2023/02/26 11:55:32;;;;;;;;;0.75;0.00;;;;;4.34;53.27;101952.09;4932137;28;49673;-70
2023/02/26 11:57:57;;;;;;;;;1.25;1.25;;;;;4.31;53.20;101950.19;4931543;28;53165;-70
2023/02/26 12:00:24;;;;;;;;;2.25;1.00;;;;;4.42;53.55;101953.50;4913871;28;50127;-68
2023/02/26 12:02:55;;;;;;;;;0.00;0.00;;;;;4.50;52.79;101949.69;4914860;28;49878;-68
2023/02/26 12:05:21;;;;;;;;;1.00;1.00;;;;;4.29;50.50;101914.50;4932305;28;49682;-68
2023/02/26 12:07:47;;;;;;;;;2.00;2.00;;;;;4.29;52.24;101865.13;4931355;28;49939;-68
2023/02/26 12:10:17;;;;;;;;;1.00;0.75;;;;;4.73;51.75;101926.81;4924668;28;49938;-69
2023/02/26 12:12:51;;;;;;;;;2.00;2.00;;;;;4.95;52.11;101962.91;4913556;28;49974;-69
2023/02/26 12:15:27;;;;;;;;;0.25;0.00;;;;;4.83;51.64;101950.94;4913704;28;49779;-69
2023/02/26 12:18:05;;;;;;;;;1.00;1.00;;;;;4.83;52.41;101953.53;4913155;28;49860;-67
2023/02/26 12:20:37;;;;;;;;;2.75;2.00;;;;;4.80;52.42;101949.81;4913305;28;49779;-67
2023/02/26 12:23:24;;;;;;;;;1.50;0.00;;;;;4.75;51.66;101959.06;4913359;28;50046;-67
2023/02/26 12:26:18;;;;;;;;;2.00;1.00;;;;;4.74;51.85;101965.97;4913594;28;49637;-65
2023/02/26 12:29:06;;;;;;;;;0.25;0.00;;;;;4.67;51.33;101952.47;4912594;28;49760;-66
2023/02/26 12:31:37;;;;;;;;;1.25;1.25;;;;;4.71;51.47;101960.53;4930767;28;49344;-68
2023/02/26 12:34:42;;;;;;;;;0.25;0.25;;;;;4.72;51.86;101956.25;4913733;28;49794;-64
2023/02/26 12:37:41;;;;;;;;;0.00;0.00;;;;;4.50;50.98;101956.59;4931288;28;49901;-61
2023/02/26 12:40:29;;;;;;;;;1.00;1.00;;;;;4.53;52.15;101956.78;4931709;28;50963;-69
2023/02/26 12:43:06;;;;;;;;;1.00;1.00;;;;;4.56;52.48;101960.50;4934248;28;49887;-68
2023/02/26 12:45:43;;;;;;;;;0.00;0.00;;;;;4.56;52.36;101962.19;4935238;28;49750;-71
2023/02/26 12:48:32;;;;;;;;;0.00;0.00;;;;;4.66;52.52;101948.06;4935172;28;49996;-68
2023/02/26 12:51:36;;;;;;;;;1.00;1.00;;;;;4.54;52.01;101923.09;4934346;28;50965;-69
2023/02/26 12:54:21;;;;;;;;;0.00;0.00;;;;;4.73;50.97;101955.44;4913613;28;49919;-69
2023/02/26 12:57:15;;;;;;;;;0.50;0.50;;;;;4.57;51.09;101915.47;4916546;28;49648;-68
2023/02/26 13:00:12;;;;;;;;;0.00;0.00;;;;;4.78;49.93;101954.94;4916857;28;50043;-68
2023/02/26 13:03:14;;;;;;;;;1.00;1.00;;;;;4.80;50.19;101955.94;4932755;28;50190;-66
2023/02/26 13:06:01;;;;;;;;;0.75;0.75;;;;;4.87;50.62;101958.13;4920980;28;49905;-68
2023/02/26 13:08:39;;;;;;;;;11.50;2.00;;;;;4.87;49.68;101980.63;4928923;28;49906;-67
2023/02/26 13:11:28;;;;;;;;;3.00;3.00;;;;;4.78;50.39;101951.44;4916025;28;49907;-68
2023/02/26 13:14:08;;;;;;;;;1.00;1.00;;;;;4.89;49.78;101963.41;4905121;28;52811;-68
2023/02/26 13:17:03;;;;;;;;;4.00;2.00;;;;;4.85;49.10;101966.66;4925042;28;49688;-69
2023/02/26 13:19:42;;;;;;;;;0.50;0.50;;;;;4.93;49.19;101961.94;4861534;28;49946;-70
2023/02/26 13:22:21;;;;;;;;;0.00;0.00;;;;;4.76;48.86;101911.44;4915574;28;49949;-68
2023/02/26 13:25:04;;;;;;;;;1.75;1.75;;;;;5.18;49.53;101947.91;4915907;28;50077;-69
2023/02/26 13:27:34;;;;;;;;;2.00;1.00;;;;;5.34;48.53;101918.50;4894085;28;50129;-66
2023/02/26 13:30:11;;;;;;;;;1.00;1.00;;;;;5.52;47.44;101944.75;4916042;28;49994;-72
2023/02/26 13:32:40;;;;;;;;;2.00;2.00;;;;;5.46;47.42;101939.16;4918395;28;49895;-69
2023/02/26 13:35:24;;;;;;;;;0.00;0.00;;;;;5.45;47.37;101938.25;4925666;28;49888;-68
2023/02/26 13:37:56;;;;;;;;;1.25;1.25;;;;;5.42;46.67;101938.09;4915620;28;49383;-69
2023/02/26 13:40:36;;;;;;;;;8.50;0.25;;;;;5.41;45.85;101914.56;4933250;28;49220;-71
2023/02/26 13:43:32;;;;;;;;;7.25;2.75;;;;;5.77;46.07;101936.66;4927771;28;49735;-71
2023/02/26 13:46:00;;;;;;;;;0.25;0.00;;;;;6.01;45.42;101938.13;4914502;28;49525;-71
2023/02/26 13:48:47;;;;;;;;;1.00;1.00;;;;;6.10;44.43;101950.81;4933222;28;49425;-71
2023/02/26 13:51:24;;;;;;;;;1.00;1.00;;;;;6.05;44.32;101926.16;4925212;28;49748;-70
2023/02/26 13:54:07;;;;;;;;;1.00;0.00;;;;;6.04;43.51;101937.41;4932791;28;49734;-70
2023/02/26 13:56:32;;;;;;;;;0.25;0.25;;;;;6.02;44.05;101949.47;4932853;28;50686;-77
2023/02/26 13:59:01;;;;;;;;;3.75;1.25;;;;;6.21;43.95;101954.94;4923208;28;49850;-72
2023/02/26 14:01:49;;;;;;;;;1.50;1.50;;;;;6.00;43.07;101919.81;4922339;28;49948;-69
2023/02/26 14:04:23;;;;;;;;;1.00;1.00;;;;;6.00;44.16;101936.34;4918707;28;49678;-74
2023/02/26 14:06:53;;;;;;;;;0.25;0.25;;;;;5.99;45.74;101962.34;4936051;28;51857;-70
2023/02/26 14:09:21;;;;;;;;;2.00;2.00;;;;;5.93;45.93;101943.72;4926730;28;49368;-71
2023/02/26 14:12:21;;;;;;;;;0.75;0.75;;;;;5.79;46.50;101945.50;4913421;28;49872;-71
2023/02/26 14:14:59;;;;;;;;;2.00;2.00;;;;;5.71;46.91;101955.47;4917750;28;49879;-70
2023/02/26 14:17:49;;;;;;;;;1.00;1.00;;;;;5.66;46.27;101932.53;4942774;28;50003;-71
2023/02/26 14:20:26;;;;;;;;;1.00;1.00;;;;;5.55;45.52;101900.63;4890455;28;49863;-69
2023/02/26 14:23:10;;;;;;;;;1.00;1.00;;;;;5.76;45.53;101908.81;4931575;28;49419;-69
2023/02/26 14:25:45;;;;;;;;;1.00;1.00;;;;;6.05;45.62;101951.34;4915387;28;49770;-69
2023/02/26 14:28:26;;;;;;;;;2.50;1.00;;;;;6.17;45.99;101944.22;4915459;28;51057;-72
2023/02/26 14:31:06;;;;;;;;;1.00;1.00;;;;;6.08;46.31;101935.88;4915486;28;50042;-73
2023/02/26 14:33:41;;;;;;;;;1.50;0.00;;;;;6.12;44.92;101941.38;4914746;28;49796;-71
2023/02/26 14:36:15;;;;;;;;;2.00;1.00;;;;;6.04;44.80;101913.94;4915899;28;49831;-70
2023/02/26 14:38:43;;;;;;;;;1.00;1.00;;;;;6.25;45.03;101951.66;4897193;28;51856;-77
2023/02/26 14:41:19;;;;;;;;;6.00;2.00;;;;;5.81;45.51;101912.59;4914765;28;49950;-79
2023/02/26 14:43:53;;;;;;;;;1.75;1.75;;;;;5.17;45.51;101810.75;4915851;28;49717;-77
2023/02/26 14:46:19;;;;;;;;;1.75;1.75;;;;;5.29;46.45;101836.59;4909367;28;49681;-73
2023/02/26 14:48:46;;;;;;;;;4.25;1.00;;;;;5.74;45.51;101963.44;4916747;28;49792;-73
2023/02/26 14:51:29;;;;;;;;;1.00;1.00;;;;;5.67;46.06;101984.72;4924210;28;49522;-74
2023/02/26 14:54:07;;;;;;;;;1.75;1.75;;;;;5.36;46.69;101945.53;4932292;28;49469;-74
2023/02/26 14:56:52;;;;;;;;;2.00;1.00;;;;;5.27;46.62;101960.59;4931202;28;49434;-79
2023/02/26 14:59:51;;;;;;;;;0.00;0.00;;;;;5.38;46.39;101975.16;4912885;28;50937;-74
2023/02/26 15:03:02;;;;;;;;;4.00;1.50;;;;;5.38;46.67;101988.16;4911228;28;49955;-74
2023/02/26 15:05:42;;;;;;;;;1.00;1.00;;;;;5.15;46.57;101936.41;4792855;29;50032;-82
2023/02/26 15:08:40;;;;;;;;;1.75;1.75;;;;;5.61;47.31;101980.88;4910880;28;49612;-77
2023/02/26 15:11:24;;;;;;;;;2.00;2.00;;;;;5.65;47.35;101991.56;4866082;28;52627;-77
2023/02/26 15:14:00;;;;;;;;;2.00;2.00;;;;;5.51;46.73;101983.72;4920028;28;49767;-75
2023/02/26 15:16:45;;;;;;;;;3.50;1.50;;;;;5.45;47.29;101992.06;4915445;28;49591;-73
2023/02/26 15:19:34;;;;;;;;;1.50;1.50;;;;;4.62;46.92;101894.94;4921219;28;49236;-77
2023/02/26 15:22:02;;;;;;;;;2.00;2.00;;;;;5.36;47.18;101995.00;4906280;28;49844;-74
2023/02/26 15:24:30;;;;;;;;;3.50;3.50;;;;;4.62;47.41;101897.53;4907485;28;49814;-74
2023/02/26 15:27:05;;;;;;;;;2.00;1.00;;;;;4.36;47.62;101802.34;4910833;28;49809;-74
2023/02/26 15:29:35;;;;;;;;;1.25;1.25;;;;;4.51;46.85;101821.47;4922108;28;49204;-74
2023/02/26 15:32:26;;;;;;;;;1.00;1.00;;;;;5.42;47.03;102017.94;4920371;28;50376;-74
2023/02/26 15:35:02;;;;;;;;;1.75;1.75;;;;;5.20;46.30;102026.09;4907377;28;49806;-76
2023/02/26 15:37:32;;;;;;;;;2.00;2.00;;;;;3.66;46.34;101759.78;4908060;28;49893;-79
2023/02/26 15:39:58;;;;;;;;;7.25;4.00;;;;;4.42;47.30;101943.09;4923766;28;49827;-75
2023/02/26 15:42:30;;;;;;;;;2.00;2.00;;;;;4.22;47.92;101860.34;4904987;28;49898;-73
2023/02/26 15:44:59;;;;;;;;;4.50;3.00;;;;;3.00;47.76;101691.44;4906350;28;49740;-74
2023/02/26 15:47:27;;;;;;;;;1.75;1.75;;;;;4.75;48.60;101977.28;4911466;28;49716;-75
2023/02/26 15:49:53;;;;;;;;;3.00;1.50;;;;;3.66;48.25;101822.09;4905726;28;49832;-75
2023/02/26 15:52:21;;;;;;;;;4.75;4.75;;;;;3.55;48.27;101819.59;4901307;28;50236;-77
2023/02/26 15:54:54;;;;;;;;;2.00;1.00;;;;;4.94;48.05;102019.25;4908891;28;50009;-73
2023/02/26 15:57:23;;;;;;;;;5.25;4.00;;;;;4.64;48.24;102020.81;4906813;28;49862;-73
2023/02/26 15:59:51;;;;;;;;;5.00;5.00;;;;;4.39;48.04;101942.91;4912570;28;50429;-73
2023/02/26 16:02:25;;;;;;;;;2.00;2.00;;;;;3.93;47.98;101879.25;4902265;28;49779;-74
2023/02/26 16:04:51;;;;;;;;;6.50;2.00;;;;;4.58;47.59;102041.22;4901640;28;49809;-77
2023/02/26 16:07:18;;;;;;;;;1.75;1.75;;;;;3.03;47.64;101783.31;4896567;28;49619;-76
2023/02/26 16:09:50;;;;;;;;;1.50;1.50;;;;;3.28;47.44;101777.16;4906917;28;49896;-77
2023/02/26 16:12:19;;;;;;;;;6.50;5.00;;;;;3.21;47.54;101782.75;4905956;28;50910;-74
2023/02/26 16:14:52;;;;;;;;;5.00;5.00;;;;;4.11;48.14;101983.50;4908745;28;49880;-74
2023/02/26 16:17:27;;;;;;;;;4.00;4.00;;;;;4.17;48.44;101952.72;4908881;28;49594;-73
2023/02/26 16:19:55;;;;;;;;;5.25;4.25;;;;;3.10;49.08;101762.19;4907751;28;50035;-75
2023/02/26 16:22:49;;;;;;;;;1.25;1.25;;;;;4.25;50.14;101985.31;4904492;28;49841;-76
2023/02/26 16:25:17;;;;;;;;;1.75;1.75;;;;;4.52;50.21;102027.78;4901065;28;50068;-76
2023/02/26 16:27:46;;;;;;;;;4.50;4.50;;;;;4.50;50.75;102053.69;4905565;28;49924;-73
2023/02/26 16:30:18;;;;;;;;;4.75;4.00;;;;;4.01;50.11;101974.19;4907450;28;50162;-77
2023/02/26 16:32:45;;;;;;;;;4.00;4.00;;;;;4.03;49.59;101969.97;4902094;28;51141;-76
2023/02/26 16:35:20;;;;;;;;;4.25;4.25;;;;;4.11;49.46;101993.88;4888942;28;49896;-77
2023/02/26 16:37:48;;;;;;;;;2.00;2.00;;;;;4.18;49.47;102032.50;4903844;28;49899;-75
2023/02/26 16:40:25;;;;;;;;;1.00;1.00;;;;;4.35;49.44;102042.31;4913665;28;49872;-74
2023/02/26 16:42:58;;;;;;;;;4.00;4.00;;;;;4.34;49.98;102044.78;4901109;28;50850;-74
2023/02/26 16:45:36;;;;;;;;;4.50;2.50;;;;;3.24;50.42;101871.19;4906743;28;50107;-74
2023/02/26 16:48:23;;;;;;;;;8.50;6.50;;;;;4.30;50.29;102060.19;4902124;28;50064;-74
2023/02/26 16:50:56;;;;;;;;;3.75;3.00;;;;;4.26;50.94;102058.19;4906942;28;49893;-73
2023/02/26 16:53:28;;;;;;;;;7.75;5.00;;;;;3.88;50.60;102027.03;4915060;28;49984;-73
2023/02/26 16:55:55;;;;;;;;;4.75;4.50;;;;;4.15;50.36;102066.03;4901377;28;49823;-73
2023/02/26 16:58:23;;;;;;;;;2.00;2.00;;;;;3.96;49.62;102044.06;4922424;28;49771;-73
2023/02/26 17:01:07;;;;;;;;;3.00;3.00;;;;;4.11;49.51;102087.44;4931988;28;49672;-69
2023/02/26 17:03:34;;;;;;;;;4.75;2.50;;;;;3.87;49.64;102042.53;4916210;28;52420;-74
2023/02/26 17:06:08;;;;;;;;;1.75;1.75;;;;;3.97;50.90;102058.84;4924464;28;49696;-73
2023/02/26 17:08:41;;;;;;;;;7.00;4.75;;;;;2.54;50.66;101859.44;4916439;28;49851;-73
2023/02/26 17:11:09;;;;;;;;;8.00;4.00;;;;;3.39;51.55;101981.25;4912794;28;49718;-73
2023/02/26 17:13:37;;;;;;;;;2.75;2.00;;;;;3.85;51.78;102070.06;4912522;28;49741;-73
2023/02/26 17:16:08;;;;;;;;;6.50;3.50;;;;;3.50;51.95;102081.53;4912643;28;49614;-73
2023/02/26 17:18:34;;;;;;;;;4.00;4.00;;;;;3.87;51.99;102108.38;4912443;28;49924;-72
2023/02/26 17:21:04;;;;;;;;;3.00;3.00;;;;;3.73;51.48;102088.31;4912577;28;49693;-73
2023/02/26 17:23:32;;;;;;;;;3.00;2.00;;;;;3.17;51.09;101999.59;4912352;28;50730;-74
2023/02/26 17:26:01;;;;;;;;;2.00;2.00;;;;;3.42;51.84;102052.44;4914475;28;49874;-73
2023/02/26 17:28:30;;;;;;;;;3.00;2.00;;;;;3.53;51.96;102073.03;4932500;28;49691;-73
2023/02/26 17:30:55;;;;;;;;;4.25;2.00;;;;;3.62;52.16;102102.25;4934400;28;49751;-72
2023/02/26 17:33:21;;;;;;;;;1.25;1.25;;;;;3.43;52.06;102084.47;4933994;28;50826;-72
2023/02/26 17:35:47;;;;;;;;;2.50;1.50;;;;;3.38;52.75;102091.97;4932296;28;49781;-72
2023/02/26 17:38:14;;;;;;;;;2.50;2.00;;;;;3.59;52.69;102128.00;4934135;28;49984;-73
2023/02/26 17:40:42;;;;;;;;;1.00;1.00;;;;;3.37;52.77;102103.09;4917041;28;49962;-74
2023/02/26 17:43:08;;;;;;;;;5.00;5.00;;;;;3.49;52.93;102131.66;4933633;28;50034;-73
2023/02/26 17:45:36;;;;;;;;;2.00;2.00;;;;;3.53;53.45;102132.75;4933839;28;49970;-74
2023/02/26 17:48:01;;;;;;;;;1.75;1.00;;;;;3.47;53.84;102156.56;4916503;28;49845;-74
2023/02/26 17:50:53;;;;;;;;;1.00;1.00;;;;;3.41;53.73;102140.59;4916379;28;50079;-74
2023/02/26 17:53:21;;;;;;;;;2.00;2.00;;;;;3.10;54.12;102116.72;4915677;28;52607;-75
2023/02/26 17:55:48;;;;;;;;;3.50;1.75;;;;;3.38;54.53;102143.88;4916445;28;49914;-72
2023/02/26 17:58:23;;;;;;;;;2.25;1.00;;;;;2.66;54.47;102036.59;4916346;28;50074;-72
2023/02/26 18:00:51;;;;;;;;;3.50;1.00;;;;;3.07;54.34;102104.41;4933739;28;49845;-72
2023/02/26 18:03:18;;;;;;;;;4.50;4.00;;;;;3.07;54.15;102117.38;4933324;28;49832;-72
2023/02/26 18:05:48;;;;;;;;;1.00;0.00;;;;;3.33;54.82;102159.91;4933038;28;49747;-73
2023/02/26 18:08:47;;;;;;;;;2.50;2.00;;;;;3.28;54.84;102158.66;4933410;28;49839;-72
2023/02/26 18:11:14;;;;;;;;;1.75;1.75;;;;;3.05;55.83;102131.94;4870993;28;49897;-72
2023/02/26 18:13:39;;;;;;;;;1.00;1.00;;;;;3.21;55.53;102170.31;4933303;28;51044;-72
2023/02/26 18:16:05;;;;;;;;;4.00;3.00;;;;;2.93;56.48;102123.28;4933587;28;50360;-71
2023/02/26 18:18:32;;;;;;;;;1.00;1.00;;;;;2.98;55.47;102137.47;4933627;28;49859;-74
2023/02/26 18:20:58;;;;;;;;;1.25;1.25;;;;;3.00;55.72;102142.81;4934358;28;50500;-73
2023/02/26 18:23:24;;;;;;;;;3.00;3.00;;;;;2.57;55.89;102064.44;4933291;28;50076;-73
2023/02/26 18:25:51;;;;;;;;;0.00;0.00;;;;;2.95;55.09;102141.53;4916022;28;49583;-73
2023/02/26 18:28:26;;;;;;;;;1.00;1.00;;;;;2.78;56.35;102128.22;4933400;28;49830;-74
2023/02/26 18:30:52;;;;;;;;;2.00;2.00;;;;;2.74;55.40;102146.06;4933599;28;49745;-73
2023/02/26 18:33:19;;;;;;;;;2.00;2.00;;;;;3.08;55.50;102191.84;4933124;28;49673;-72
2023/02/26 18:35:46;;;;;;;;;1.00;1.00;;;;;3.07;56.36;102194.31;4932900;28;49700;-72
2023/02/26 18:38:14;;;;;;;;;1.00;1.00;;;;;3.04;55.68;102188.91;4933083;28;50133;-73
2023/02/26 18:40:40;;;;;;;;;2.00;2.00;;;;;2.91;56.18;102176.75;4932173;28;49720;-73
2023/02/26 18:43:07;;;;;;;;;1.00;1.00;;;;;2.61;55.82;102128.69;4932909;28;50004;-73
2023/02/26 18:45:32;;;;;;;;;0.50;0.50;;;;;2.83;55.60;102176.16;4933183;28;49679;-74
2023/02/26 18:47:58;;;;;;;;;1.00;1.00;;;;;2.28;55.12;102073.53;4933125;28;49612;-74
2023/02/26 18:50:26;;;;;;;;;2.00;2.00;;;;;2.96;55.64;102196.13;4932695;28;49931;-74
2023/02/26 18:52:52;;;;;;;;;2.00;2.00;;;;;2.95;56.58;102207.28;4932552;28;49999;-73
2023/02/26 18:55:17;;;;;;;;;1.75;1.75;;;;;2.08;56.76;102055.59;4932846;28;49877;-74
2023/02/26 18:57:42;;;;;;;;;5.50;2.00;;;;;2.80;56.75;102212.25;4932654;28;49807;-74
2023/02/26 19:00:12;;;;;;;;;4.50;2.50;;;;;2.88;56.98;102200.75;4933004;28;49890;-74
2023/02/26 19:02:40;;;;;;;;;1.75;1.75;;;;;2.84;56.69;102224.66;4932454;28;50040;-67
2023/02/26 19:05:06;;;;;;;;;4.00;4.00;;;;;2.29;57.08;102111.63;4916696;28;50090;-70
2023/02/26 19:07:35;;;;;;;;;1.50;1.50;;;;;2.63;56.94;102178.97;4897278;28;50108;-68
2023/02/26 19:10:01;;;;;;;;;1.75;1.75;;;;;2.81;57.23;102205.38;4917122;28;49756;-71
2023/02/26 19:12:27;;;;;;;;;4.00;4.00;;;;;2.32;57.54;102129.09;4921318;28;49723;-69
2023/02/26 19:14:52;;;;;;;;;5.00;2.00;;;;;2.77;57.74;102240.53;4916141;28;49584;-69
2023/02/26 19:17:17;;;;;;;;;1.75;1.00;;;;;2.69;57.76;102225.19;4923896;28;49365;-70
2023/02/26 19:19:43;;;;;;;;;1.25;1.25;;;;;2.66;58.29;102197.34;4925917;28;49594;-71
2023/02/26 19:22:09;;;;;;;;;1.00;1.00;;;;;2.78;58.33;102229.38;4922795;28;49876;-71
2023/02/26 19:24:35;;;;;;;;;4.75;4.75;;;;;1.89;57.55;102076.63;4925713;28;49938;-72
2023/02/26 19:27:02;;;;;;;;;2.00;1.00;;;;;2.55;58.34;102196.53;4923231;28;49760;-70
2023/02/26 19:29:27;;;;;;;;;2.00;2.00;;;;;2.09;58.50;102126.44;4937365;28;49938;-69
2023/02/26 19:31:53;;;;;;;;;0.50;0.50;;;;;2.66;59.41;102230.16;4924796;28;50126;-68
2023/02/26 19:34:18;;;;;;;;;3.00;3.00;;;;;2.62;58.36;102228.13;4908518;28;49703;-69
2023/02/26 19:36:46;;;;;;;;;1.50;1.50;;;;;2.59;58.38;102228.75;4936355;28;49589;-69
2023/02/26 19:39:13;;;;;;;;;3.00;2.00;;;;;1.64;58.70;102076.44;4950018;28;49510;-68
2023/02/26 19:41:38;;;;;;;;;1.50;1.50;;;;;2.25;59.84;102179.56;4945211;28;49872;-71
2023/02/26 19:44:04;;;;;;;;;1.00;1.00;;;;;2.08;59.45;102154.03;4935648;28;49409;-64
2023/02/26 19:46:29;;;;;;;;;2.00;2.00;;;;;1.75;59.26;102102.25;4931029;28;49333;-74
2023/02/26 19:48:55;;;;;;;;;4.25;3.50;;;;;2.34;60.10;102207.88;4930869;28;49412;-69
2023/02/26 19:51:20;;;;;;;;;9.00;6.75;;;;;2.30;60.28;102206.69;4937788;28;50399;-67
2023/02/26 19:53:46;;;;;;;;;2.00;1.50;;;;;2.48;60.11;102253.88;4944975;28;49676;-65
2023/02/26 19:56:12;;;;;;;;;1.75;1.75;;;;;2.23;60.34;102208.72;4931248;28;49396;-64
2023/02/26 19:58:37;;;;;;;;;4.75;4.75;;;;;1.97;60.75;102157.50;4930544;28;49366;-70
2023/02/26 20:01:04;;;;;;;;;4.25;2.00;;;;;2.25;61.12;102220.13;4930840;28;50303;-66
2023/02/26 20:03:31;;;;;;;;;7.25;5.00;;;;;2.28;61.44;102226.41;4930014;28;49340;-75
2023/02/26 20:05:57;;;;;;;;;3.00;3.00;;;;;2.10;61.10;102206.84;4925711;28;49749;-69
2023/02/26 20:08:25;;;;;;;;;2.00;2.00;;;;;2.21;61.59;102225.81;4930399;28;50212;-69
2023/02/26 20:10:53;;;;;;;;;5.00;4.00;;;;;1.83;61.37;102166.75;4921157;28;49999;-71
2023/02/26 20:13:19;;;;;;;;;4.00;4.00;;;;;2.37;61.50;102257.34;4913292;28;49745;-66
2023/02/26 20:15:44;;;;;;;;;1.50;1.50;;;;;1.94;62.61;102185.75;4913482;28;50141;-69
2023/02/26 20:18:10;;;;;;;;;4.00;4.00;;;;;2.13;62.66;102220.06;4907259;28;49805;-72
2023/02/26 20:20:35;;;;;;;;;5.50;5.00;;;;;2.10;62.78;102232.75;4912782;28;50743;-68
2023/02/26 20:23:01;;;;;;;;;2.50;2.50;;;;;1.83;62.73;102173.63;4934442;28;49505;-69
2023/02/26 20:25:28;;;;;;;;;3.50;1.50;;;;;1.40;62.71;102108.16;4948781;28;49377;-69
2023/02/26 20:27:54;;;;;;;;;3.50;2.00;;;;;1.87;62.56;102194.72;4948358;28;49592;-69
2023/02/26 20:30:19;;;;;;;;;4.00;3.00;;;;;1.93;63.67;102221.09;4948983;28;50256;-70
2023/02/26 20:32:45;;;;;;;;;4.25;3.00;;;;;1.99;63.08;102241.38;4948142;28;49820;-67
2023/02/26 20:35:10;;;;;;;;;4.00;3.00;;;;;1.75;63.46;102187.69;4932664;28;49393;-69
2023/02/26 20:37:36;;;;;;;;;3.00;3.00;;;;;2.13;64.20;102260.63;4930900;28;49172;-69
2023/02/26 20:40:03;;;;;;;;;3.25;2.25;;;;;1.52;63.48;102181.56;4933113;28;50364;-69
2023/02/26 20:42:29;;;;;;;;;2.00;2.00;;;;;1.53;63.71;102169.53;4945973;28;49223;-70
2023/02/26 20:44:54;;;;;;;;;1.25;1.25;;;;;1.36;64.27;102138.06;4946960;28;49558;-70
2023/02/26 20:47:20;;;;;;;;;1.75;1.75;;;;;1.82;64.23;102233.97;4948761;28;49333;-70
2023/02/26 20:49:45;;;;;;;;;5.00;1.00;;;;;1.71;64.34;102239.19;4948625;28;50411;-69
2023/02/26 20:52:11;;;;;;;;;4.50;4.50;;;;;1.69;64.61;102209.69;4933470;28;49768;-69
2023/02/26 20:54:36;;;;;;;;;4.00;2.00;;;;;1.46;65.00;102183.69;4913262;28;49575;-70
2023/02/26 20:57:02;;;;;;;;;3.00;3.00;;;;;1.59;65.10;102214.03;4930623;28;49451;-70
2023/02/26 20:59:28;;;;;;;;;2.50;1.75;;;;;1.73;65.69;102224.69;4930007;28;49866;-70
2023/02/26 21:01:53;;;;;;;;;5.50;5.50;;;;;1.37;66.34;102173.50;4930525;28;49311;-70
2023/02/26 21:04:19;;;;;;;;;1.00;1.00;;;;;2.05;65.47;102280.72;4933288;28;49354;-70
2023/02/26 21:06:45;;;;;;;;;1.75;1.75;;;;;2.00;66.08;102284.63;4929385;28;49623;-69
2023/02/26 21:09:11;;;;;;;;;4.00;4.00;;;;;2.01;65.85;102287.34;4907485;28;50105;-69
2023/02/26 21:11:38;;;;;;;;;2.50;2.50;;;;;2.01;66.20;102291.63;4908815;28;49724;-69
2023/02/26 21:14:05;;;;;;;;;4.00;2.50;;;;;1.99;66.07;102299.28;4926710;28;50022;-69
2023/02/26 21:16:31;;;;;;;;;2.00;2.00;;;;;1.96;66.45;102301.63;4929461;28;49420;-69
2023/02/26 21:18:59;;;;;;;;;4.75;3.00;;;;;1.73;66.45;102257.44;4922707;28;50152;-69
2023/02/26 21:21:25;;;;;;;;;1.00;1.00;;;;;1.20;67.11;102165.16;4922433;28;49943;-70
2023/02/26 21:23:52;;;;;;;;;2.50;2.00;;;;;1.29;67.17;102182.34;4942635;28;49485;-71
